Time;durP1;ratioP1;P1;durP2;ratioP2;P2;SDS_P1;SDS_P2;PMS_P1;PMS_P2;Temp;Humidity;BMP_temperature;BMP_pressure;BME280_temperature;BME280_humidity;BME280_pressure;Samples;Min_cycle;Max_cycle;Signal;HPM_P1;HPM_P2
2021/12/31 00:02:20;;;;;;;14.35;3.22;;;;;;;8.34;64.53;101262.78;4985533;28;20062;-78
2021/12/31 00:04:45;;;;;;;20.55;3.45;;;;;;;8.40;64.59;101273.03;4979899;28;20040;-80
2021/12/31 00:07:11;;;;;;;10.50;3.25;;;;;;;8.64;64.12;101276.78;4987247;28;20174;-81
2021/12/31 00:09:38;;;;;;;10.85;3.53;;;;;;;9.02;62.81;101266.28;4986856;28;20827;-80
2021/12/31 00:12:07;;;;;;;8.23;2.90;;;;;;;8.94;62.75;101254.31;4984826;28;20514;-79
2021/12/31 00:14:34;;;;;;;10.98;4.03;;;;;;;8.63;63.79;101262.03;4970980;28;20298;-85
2021/12/31 00:16:59;;;;;;;11.52;2.70;;;;;;;8.76;63.12;101255.66;4967943;28;20065;-81
2021/12/31 00:19:29;;;;;;;11.38;3.40;;;;;;;8.82;63.29;101246.81;4989643;28;20039;-82
2021/12/31 00:21:54;;;;;;;17.63;3.33;;;;;;;8.56;63.81;101243.09;4987676;28;20040;-79
2021/12/31 00:24:21;;;;;;;8.60;2.63;;;;;;;8.63;64.16;101242.94;4989542;28;20042;-80
2021/12/31 00:26:47;;;;;;;19.20;3.00;;;;;;;8.65;63.11;101241.13;4979406;28;20022;-81
2021/12/31 00:29:13;;;;;;;8.40;2.65;;;;;;;8.44;64.07;101246.00;4991714;28;20593;-80
2021/12/31 00:31:39;;;;;;;8.23;2.33;;;;;;;8.88;62.76;101246.66;4991603;28;20073;-81
2021/12/31 00:34:04;;;;;;;12.02;3.63;;;;;;;9.17;61.56;101258.88;4973526;28;20035;-81
2021/12/31 00:36:47;;;;;;;15.95;2.88;;;;;;;8.91;62.72;101246.56;4995195;28;20031;-81
2021/12/31 00:39:14;;;;;;;13.93;2.78;;;;;;;8.67;62.83;101239.34;4994676;28;20121;-81
2021/12/31 00:41:40;;;;;;;13.32;2.92;;;;;;;8.24;64.43;101256.06;4997256;28;20129;-81
2021/12/31 00:44:06;;;;;;;9.60;2.70;;;;;;;8.85;62.29;101231.09;4984705;28;20034;-80
2021/12/31 00:46:32;;;;;;;15.38;2.03;;;;;;;8.82;62.42;101244.19;4996023;28;20047;-80
2021/12/31 00:48:58;;;;;;;8.20;2.40;;;;;;;8.92;61.71;101253.50;4987965;28;20054;-81
2021/12/31 00:51:25;;;;;;;6.95;2.67;;;;;;;9.11;61.46;101246.00;4990083;28;20057;-81
2021/12/31 00:53:51;;;;;;;14.05;2.65;;;;;;;9.36;60.42;101256.59;4995916;28;20068;-81
2021/12/31 00:56:17;;;;;;;10.30;1.45;;;;;;;9.09;61.06;101236.53;4979308;28;20165;-81
2021/12/31 00:58:42;;;;;;;10.77;1.95;;;;;;;9.12;61.29;101247.72;4989986;28;20470;-80
2021/12/31 01:01:16;;;;;;;15.63;2.45;;;;;;;9.01;61.74;101244.56;4989686;28;20248;-80
2021/12/31 01:03:41;;;;;;;13.05;1.58;;;;;;;9.05;61.45;101245.31;4988150;28;20057;-81
2021/12/31 01:06:07;;;;;;;14.32;1.95;;;;;;;9.31;60.75;101248.06;4976982;28;20039;-81
2021/12/31 01:08:33;;;;;;;13.52;2.78;;;;;;;8.85;61.44;101241.53;4991298;28;20110;-81
2021/12/31 01:10:58;;;;;;;9.80;2.03;;;;;;;8.94;61.39;101249.09;5011479;28;20972;-81
2021/12/31 01:13:32;;;;;;;7.38;1.10;;;;;;;9.16;61.19;101258.91;4994014;28;20042;-82
2021/12/31 01:16:00;;;;;;;7.82;1.73;;;;;;;9.05;61.53;101258.34;4999226;28;20510;-81
2021/12/31 01:21:10;;;;;;;11.10;1.60;;;;;;;9.08;61.24;101260.91;5010863;28;20069;-80
2021/12/31 01:23:35;;;;;;;13.75;2.30;;;;;;;9.11;61.13;101263.41;4997042;28;20077;-81
2021/12/31 01:26:01;;;;;;;7.78;1.88;;;;;;;9.14;60.91;101250.28;5001242;28;20134;-81
2021/12/31 01:28:27;;;;;;;6.35;1.15;;;;;;;9.25;60.52;101258.66;4996966;28;20061;-81
2021/12/31 01:30:52;;;;;;;16.95;2.08;;;;;;;9.11;61.00;101250.38;4978877;28;20046;-82
2021/12/31 01:33:18;;;;;;;13.75;1.63;;;;;;;9.08;60.88;101256.53;4996785;28;20093;-82
2021/12/31 01:35:43;;;;;;;9.35;1.52;;;;;;;9.05;61.52;101260.97;4995916;28;20054;-81
2021/12/31 01:38:09;;;;;;;5.38;1.60;;;;;;;9.04;60.95;101260.13;4996813;28;20046;-82
2021/12/31 01:40:34;;;;;;;5.22;1.65;;;;;;;8.79;62.23;101270.34;4999510;28;20178;-81
2021/12/31 01:43:00;;;;;;;8.30;1.17;;;;;;;9.15;60.82;101270.25;5001616;28;20049;-81
2021/12/31 01:45:30;;;;;;;14.65;1.85;;;;;;;8.67;62.42;101278.44;4982374;28;20073;-82
2021/12/31 01:47:59;;;;;;;5.63;1.42;;;;;;;8.59;62.37;101275.19;4995127;28;20085;-81
2021/12/31 01:50:27;;;;;;;9.27;1.40;;;;;;;9.00;60.90;101276.72;5015082;28;20419;-81
2021/12/31 01:52:53;;;;;;;6.95;1.67;;;;;;;9.04;60.92;101269.69;5000888;28;20073;-81
2021/12/31 01:55:21;;;;;;;8.73;1.00;;;;;;;8.18;63.25;101266.63;5006378;28;20034;-83
2021/12/31 01:57:47;;;;;;;10.20;0.95;;;;;;;8.68;62.10;101273.19;5002969;28;20057;-81
2021/12/31 02:00:13;;;;;;;7.38;1.35;;;;;;;8.83;61.33;101266.78;4998817;28;20034;-81
2021/12/31 02:02:43;;;;;;;6.47;1.30;;;;;;;9.04;60.91;101274.91;4993442;28;20089;-81
2021/12/31 02:05:09;;;;;;;6.80;1.00;;;;;;;9.16;60.41;101266.72;4995099;28;20061;-81
2021/12/31 02:07:36;;;;;;;13.55;1.85;;;;;;;8.41;62.76;101266.09;4979159;28;20129;-81
2021/12/31 02:10:02;;;;;;;3.65;0.65;;;;;;;8.63;61.95;101279.41;4999579;28;20042;-80
2021/12/31 02:12:28;;;;;;;9.00;2.17;;;;;;;8.77;61.35;101273.00;4978644;28;20054;-81
2021/12/31 02:14:53;;;;;;;10.85;1.00;;;;;;;9.12;60.46;101276.41;4993692;28;20171;-80
2021/12/31 02:17:19;;;;;;;12.52;2.35;;;;;;;8.92;60.87;101266.53;4991449;28;20550;-81
2021/12/31 02:20:02;;;;;;;7.38;1.27;;;;;;;8.73;61.37;101275.72;4978628;28;20098;-82
2021/12/31 02:22:28;;;;;;;10.38;2.05;;;;;;;9.05;60.41;101271.38;4971286;28;20045;-81
2021/12/31 02:24:56;;;;;;;7.03;1.30;;;;;;;9.00;60.49;101268.06;4996919;28;20053;-82
2021/12/31 02:27:23;;;;;;;12.43;1.40;;;;;;;8.75;61.61;101280.00;4994912;28;20038;-81
2021/12/31 02:29:50;;;;;;;6.03;1.75;;;;;;;8.54;62.02;101272.72;4996269;28;20061;-82
2021/12/31 02:32:15;;;;;;;7.05;0.60;;;;;;;8.65;61.85;101282.84;4993065;28;20058;-82
2021/12/31 02:34:41;;;;;;;13.82;2.35;;;;;;;8.82;60.88;101277.22;4980335;28;20034;-82
2021/12/31 02:37:07;;;;;;;6.63;1.63;;;;;;;8.64;61.28;101291.56;4997266;28;20034;-82
2021/12/31 02:39:34;;;;;;;17.48;1.73;;;;;;;8.66;61.62;101267.16;4998500;28;20117;-81
2021/12/31 02:42:00;;;;;;;11.30;1.33;;;;;;;8.34;62.62;101271.44;5010862;28;20042;-81
2021/12/31 02:44:25;;;;;;;11.63;2.88;;;;;;;8.91;60.79;101263.94;4979370;28;20097;-81
2021/12/31 02:46:51;;;;;;;9.13;1.55;;;;;;;8.09;63.25;101258.16;4991517;28;20585;-80
2021/12/31 02:49:22;;;;;;;8.60;1.13;;;;;;;8.61;61.99;101265.59;4995516;28;20035;-81
2021/12/31 02:51:48;;;;;;;7.75;1.10;;;;;;;8.80;60.84;101256.41;4990694;28;20030;-81
2021/12/31 02:54:16;;;;;;;15.00;2.25;;;;;;;8.95;60.71;101245.56;4995907;28;20042;-81
2021/12/31 02:56:42;;;;;;;13.80;1.55;;;;;;;9.13;59.79;101253.78;4989795;28;20104;-80
2021/12/31 02:59:10;;;;;;;10.00;1.33;;;;;;;8.82;60.71;101257.22;4998299;28;20034;-80
2021/12/31 03:01:36;;;;;;;9.55;0.98;;;;;;;8.60;61.46;101253.44;4980025;28;20086;-80
2021/12/31 03:04:03;;;;;;;7.20;1.20;;;;;;;9.02;60.20;101255.84;4994826;28;20061;-83
2021/12/31 03:06:29;;;;;;;9.68;1.75;;;;;;;9.18;59.95;101249.28;4993964;28;20034;-80
2021/12/31 03:08:57;;;;;;;7.25;1.42;;;;;;;9.00;60.22;101271.53;4973368;28;20054;-81
2021/12/31 03:11:24;;;;;;;4.60;1.48;;;;;;;8.75;60.96;101255.69;4991287;28;20490;-80
2021/12/31 03:13:54;;;;;;;11.45;1.95;;;;;;;8.87;60.54;101263.16;5002330;28;20053;-81
2021/12/31 03:16:24;;;;;;;10.38;2.15;;;;;;;8.88;60.34;101264.91;4977980;28;20034;-81
2021/12/31 03:18:50;;;;;;;16.50;1.92;;;;;;;8.81;60.38;101244.22;4984854;28;20053;-80
2021/12/31 03:21:22;;;;;;;9.23;2.10;;;;;;;8.60;61.10;101263.88;4991287;28;20568;-81
2021/12/31 03:23:50;;;;;;;8.35;1.27;;;;;;;9.18;59.61;101257.97;4985081;28;20133;-80
2021/12/31 03:26:16;;;;;;;13.77;1.17;;;;;;;9.35;58.91;101259.25;4994367;28;20065;-80
2021/12/31 03:28:41;;;;;;;9.70;1.42;;;;;;;9.55;58.26;101258.69;4986338;28;20164;-81
2021/12/31 03:31:07;;;;;;;10.32;1.75;;;;;;;8.85;60.31;101258.91;4993605;28;20177;-81
2021/12/31 03:33:32;;;;;;;11.73;1.45;;;;;;;9.28;59.36;101237.72;5003166;28;20085;-81
2021/12/31 03:35:58;;;;;;;14.30;2.05;;;;;;;9.02;60.12;101242.81;4978923;28;20027;-82
2021/12/31 03:38:23;;;;;;;16.83;2.13;;;;;;;8.30;61.90;101255.94;4993181;28;20448;-81
2021/12/31 03:40:49;;;;;;;14.98;2.30;;;;;;;8.95;60.16;101244.72;4997545;28;20674;-81
2021/12/31 03:43:15;;;;;;;10.60;1.30;;;;;;;8.58;61.41;101245.66;4993054;28;20442;-81
2021/12/31 03:45:41;;;;;;;10.40;2.03;;;;;;;9.11;59.81;101237.34;4997619;28;20038;-81
2021/12/31 03:48:07;;;;;;;7.95;1.38;;;;;;;9.22;59.40;101243.09;4992047;28;20053;-81
2021/12/31 03:50:33;;;;;;;10.15;2.17;;;;;;;9.37;58.79;101236.59;4975325;28;20048;-81
2021/12/31 03:52:58;;;;;;;11.45;1.65;;;;;;;8.79;61.14;101241.69;4974095;28;20054;-81
2021/12/31 03:55:24;;;;;;;10.07;1.52;;;;;;;8.63;61.59;101228.19;4994142;28;20536;-81
2021/12/31 03:57:50;;;;;;;10.50;2.17;;;;;;;8.73;60.91;101234.03;4992211;28;20051;-80
2021/12/31 04:00:16;;;;;;;14.45;1.85;;;;;;;8.62;62.15;101241.22;4998658;28;20525;-81
2021/12/31 04:02:42;;;;;;;14.57;2.30;;;;;;;9.31;59.78;101237.63;4990293;28;20058;-81
2021/12/31 04:05:08;;;;;;;15.52;2.42;;;;;;;8.91;60.47;101233.50;4995217;28;20508;-82
2021/12/31 04:07:33;;;;;;;8.32;2.05;;;;;;;8.91;60.80;101233.50;4978054;28;20042;-81
2021/12/31 04:09:59;;;;;;;10.30;2.22;;;;;;;9.29;59.34;101231.59;4993730;28;20057;-80
2021/12/31 04:12:24;;;;;;;16.20;3.15;;;;;;;8.90;61.03;101231.81;4991149;28;20042;-81
2021/12/31 04:14:50;;;;;;;9.65;1.60;;;;;;;8.88;60.96;101215.38;4977775;28;20038;-81
2021/12/31 04:17:15;;;;;;;6.35;1.30;;;;;;;8.71;61.53;101235.81;4994467;28;20085;-81
2021/12/31 04:19:42;;;;;;;9.20;2.33;;;;;;;9.34;59.44;101216.69;4990169;28;20061;-81
2021/12/31 04:22:08;;;;;;;9.80;1.95;;;;;;;9.54;58.76;101213.47;4989908;28;20045;-81
2021/12/31 04:27:09;;;;;;;7.93;1.92;;;;;;;8.68;60.93;101204.59;5003231;28;20061;-81
2021/12/31 04:29:35;;;;;;;8.82;2.17;;;;;;;9.23;59.66;101213.53;5000616;28;20046;-81
2021/12/31 04:32:01;;;;;;;6.13;1.63;;;;;;;9.18;60.13;101213.63;4992428;28;20045;-80
2021/12/31 04:34:27;;;;;;;10.70;1.75;;;;;;;8.89;60.43;101209.25;4974771;28;20495;-81
2021/12/31 04:36:53;;;;;;;6.53;1.67;;;;;;;8.71;60.94;101213.19;4983410;28;20034;-81
2021/12/31 04:39:18;;;;;;;9.90;1.77;;;;;;;9.38;59.03;101222.63;4998849;28;20049;-81
2021/12/31 04:41:44;;;;;;;11.23;1.10;;;;;;;9.30;59.61;101214.19;5005558;28;20030;-81
2021/12/31 04:44:10;;;;;;;12.27;2.20;;;;;;;9.54;58.78;101217.81;5009764;28;20098;-81
2021/12/31 04:46:35;;;;;;;7.88;2.33;;;;;;;9.01;60.46;101215.00;5008935;28;20023;-83
2021/12/31 04:49:01;;;;;;;5.53;1.52;;;;;;;9.19;59.71;101211.91;4992672;28;20030;-80
2021/12/31 04:51:26;;;;;;;7.25;1.73;;;;;;;9.37;59.17;101200.06;5008903;28;20484;-82
2021/12/31 04:53:52;;;;;;;8.68;1.63;;;;;;;9.18;59.89;101211.03;5008132;28;20045;-83
2021/12/31 04:56:17;;;;;;;7.28;1.85;;;;;;;9.31;59.52;101201.09;5004907;28;20077;-80
2021/12/31 04:58:43;;;;;;;7.25;1.23;;;;;;;9.68;57.99;101200.00;5001513;28;20038;-81
2021/12/31 05:01:08;;;;;;;7.32;1.35;;;;;;;9.47;58.77;101195.44;4998032;28;20101;-81
2021/12/31 05:03:34;;;;;;;7.38;1.77;;;;;;;9.45;59.12;101199.84;4990920;28;20300;-81
2021/12/31 05:05:59;;;;;;;9.57;1.75;;;;;;;9.19;59.59;101196.25;4999005;28;20030;-81
2021/12/31 05:08:25;;;;;;;9.52;1.90;;;;;;;9.26;59.95;101203.00;4999610;28;20102;-81
2021/12/31 05:10:50;;;;;;;5.30;1.20;;;;;;;9.50;58.75;101197.94;4996697;28;20045;-82
2021/12/31 05:13:16;;;;;;;7.60;1.30;;;;;;;9.52;58.75;101198.75;4980053;28;20050;-82
2021/12/31 05:15:46;;;;;;;6.28;1.90;;;;;;;9.12;59.77;101211.22;5003098;28;20062;-80
2021/12/31 05:18:13;;;;;;;8.57;1.15;;;;;;;9.40;58.90;101195.59;4997225;28;20045;-80
2021/12/31 05:20:39;;;;;;;4.10;1.38;;;;;;;9.06;59.75;101205.31;4997855;28;20247;-81
2021/12/31 05:23:05;;;;;;;6.50;1.35;;;;;;;9.64;57.96;101202.75;4996284;28;20046;-79
2021/12/31 05:25:30;;;;;;;2.47;1.05;;;;;;;9.20;59.01;101190.13;5004016;28;20557;-82
2021/12/31 05:27:56;;;;;;;11.50;1.65;;;;;;;9.42;58.37;101172.09;4996396;28;20101;-81
2021/12/31 05:30:22;;;;;;;4.95;1.35;;;;;;;9.57;58.38;101170.78;4997385;28;20045;-81
2021/12/31 05:32:48;;;;;;;11.82;1.67;;;;;;;9.32;58.91;101170.63;4993228;28;20054;-81
2021/12/31 05:35:14;;;;;;;7.88;1.63;;;;;;;9.73;57.30;101161.53;4994396;28;20092;-80
2021/12/31 05:37:40;;;;;;;13.98;1.58;;;;;;;9.53;57.59;101156.94;5008356;28;20454;-80
2021/12/31 05:40:06;;;;;;;3.40;1.25;;;;;;;9.73;57.40;101156.31;4974341;28;20034;-81
2021/12/31 05:42:32;;;;;;;5.32;0.60;;;;;;;9.58;57.74;101152.44;4988997;28;20414;-81
2021/12/31 05:44:58;;;;;;;8.27;1.52;;;;;;;9.56;57.99;101163.81;4981459;28;20030;-80
2021/12/31 05:47:23;;;;;;;4.03;0.80;;;;;;;8.96;59.71;101156.06;4991067;28;20062;-81
2021/12/31 05:49:49;;;;;;;6.35;0.73;;;;;;;9.62;57.84;101179.31;4995710;28;20038;-82
2021/12/31 05:52:15;;;;;;;8.85;1.05;;;;;;;9.25;58.46;101156.94;4972214;28;20039;-81
2021/12/31 05:54:41;;;;;;;2.28;0.98;;;;;;;9.33;58.79;101156.72;4993947;28;20528;-81
2021/12/31 05:57:07;;;;;;;3.97;0.82;;;;;;;9.08;59.39;101146.16;4994894;28;20058;-82
2021/12/31 05:59:32;;;;;;;4.57;0.98;;;;;;;8.92;60.07;101158.78;4976878;28;20414;-81
2021/12/31 06:01:58;;;;;;;6.63;0.85;;;;;;;8.92;60.39;101162.25;4995228;28;20409;-80
2021/12/31 06:04:24;;;;;;;4.15;0.55;;;;;;;8.91;60.22;101170.94;4980635;28;20409;-81
2021/12/31 06:06:50;;;;;;;8.25;1.23;;;;;;;9.69;58.13;101149.50;4978031;28;20030;-81
2021/12/31 06:09:15;;;;;;;7.93;1.20;;;;;;;9.64;57.90;101150.56;4995165;28;20157;-81
2021/12/31 06:11:41;;;;;;;2.05;0.77;;;;;;;8.89;60.14;101145.84;4991673;28;20482;-81
2021/12/31 06:14:09;;;;;;;4.00;0.75;;;;;;;9.29;59.46;101142.91;4996001;28;20026;-81
2021/12/31 06:16:40;;;;;;;7.50;1.23;;;;;;;9.38;59.00;101133.94;5002654;28;20046;-80
2021/12/31 06:19:08;;;;;;;6.75;0.82;;;;;;;9.07;59.87;101149.66;4996338;28;20049;-82
2021/12/31 06:21:34;;;;;;;4.15;0.45;;;;;;;9.64;57.92;101150.56;4998989;28;20037;-83
2021/12/31 06:24:00;;;;;;;4.30;1.20;;;;;;;9.24;59.39;101162.22;4994477;28;20054;-81
2021/12/31 06:26:26;;;;;;;6.35;1.20;;;;;;;9.13;59.24;101139.06;4978565;28;20057;-81
2021/12/31 06:28:52;;;;;;;4.80;1.00;;;;;;;9.21;59.48;101150.13;4974476;28;20046;-80
2021/12/31 06:31:17;;;;;;;2.33;0.80;;;;;;;9.33;58.92;101147.13;4974636;28;20034;-82
2021/12/31 06:33:43;;;;;;;4.60;0.90;;;;;;;9.45;58.39;101151.09;4991919;28;20050;-82
2021/12/31 06:36:08;;;;;;;9.00;1.20;;;;;;;9.21;59.24;101157.94;4993987;28;20052;-80
2021/12/31 06:38:34;;;;;;;4.70;1.20;;;;;;;9.37;58.91;101153.97;4980572;28;20552;-81
2021/12/31 06:40:59;;;;;;;3.00;0.77;;;;;;;9.96;56.74;101152.16;4978894;28;20042;-81
2021/12/31 06:43:25;;;;;;;1.83;0.93;;;;;;;9.60;57.93;101144.56;4993774;28;20042;-81
2021/12/31 06:45:50;;;;;;;3.17;0.98;;;;;;;9.53;58.17;101138.69;4999444;28;20057;-80
2021/12/31 06:48:16;;;;;;;7.97;0.95;;;;;;;9.56;58.20;101148.16;4991735;28;20050;-81
2021/12/31 06:50:42;;;;;;;3.00;0.70;;;;;;;9.59;58.15;101159.38;4993246;28;20042;-80
2021/12/31 06:53:07;;;;;;;4.00;0.93;;;;;;;9.55;57.93;101151.69;4992074;28;20042;-81
2021/12/31 06:55:32;;;;;;;9.10;1.00;;;;;;;10.06;56.65;101131.78;4976938;28;20038;-81
2021/12/31 06:57:59;;;;;;;6.97;1.25;;;;;;;9.48;58.35;101144.97;4993840;28;20078;-81
2021/12/31 07:00:25;;;;;;;2.90;1.05;;;;;;;9.42;58.64;101132.09;4997282;28;20069;-80
2021/12/31 07:02:51;;;;;;;2.60;1.40;;;;;;;9.32;58.95;101142.81;4993471;28;20098;-81
2021/12/31 07:05:17;;;;;;;11.02;1.30;;;;;;;9.27;59.19;101136.88;5007498;28;20026;-81
2021/12/31 07:07:42;;;;;;;4.78;1.40;;;;;;;9.76;57.68;101150.16;5006415;28;20247;-80
2021/12/31 07:10:08;;;;;;;2.88;1.33;;;;;;;9.50;58.55;101149.22;5007657;28;20030;-81
2021/12/31 07:12:34;;;;;;;2.90;1.58;;;;;;;9.77;57.94;101159.69;5004500;28;20090;-81
2021/12/31 07:14:59;;;;;;;6.13;2.13;;;;;;;9.62;58.10;101152.34;5007017;28;20080;-82
2021/12/31 07:17:28;;;;;;;7.18;2.15;;;;;;;9.77;57.78;101164.91;5002666;28;20054;-81
2021/12/31 07:19:54;;;;;;;5.55;2.35;;;;;;;9.70;58.03;101176.44;4977598;28;20173;-81
2021/12/31 07:22:19;;;;;;;4.45;2.22;;;;;;;9.58;58.37;101177.69;4977598;28;20530;-81
2021/12/31 07:24:45;;;;;;;8.02;1.70;;;;;;;9.83;57.71;101169.13;4978275;28;20034;-81
2021/12/31 07:27:10;;;;;;;4.13;2.15;;;;;;;9.84;57.80;101168.22;4994797;28;20688;-80
2021/12/31 07:29:36;;;;;;;2.60;1.70;;;;;;;9.36;58.97;101173.09;4972193;28;20030;-80
2021/12/31 07:32:01;;;;;;;2.50;1.70;;;;;;;9.32;59.24;101165.41;4993122;28;20062;-81
2021/12/31 07:34:27;;;;;;;7.50;1.63;;;;;;;9.62;57.98;101168.88;4995135;28;20030;-80
2021/12/31 07:36:52;;;;;;;3.40;2.85;;;;;;;9.54;58.59;101171.72;4988753;28;20569;-79
2021/12/31 07:39:20;;;;;;;6.50;2.13;;;;;;;9.84;57.37;101168.22;4977468;28;20127;-81
2021/12/31 07:41:46;;;;;;;6.63;1.77;;;;;;;9.89;57.56;101166.31;4985244;28;20046;-79
2021/12/31 07:44:11;;;;;;;5.13;2.28;;;;;;;9.66;58.17;101159.19;4995089;28;20049;-80
2021/12/31 07:46:37;;;;;;;4.38;1.67;;;;;;;9.89;57.16;101182.81;4977866;28;20560;-83
2021/12/31 07:49:02;;;;;;;7.68;1.48;;;;;;;9.54;57.57;101176.06;4995697;28;20050;-80
2021/12/31 07:51:28;;;;;;;2.72;1.77;;;;;;;10.21;56.27;101173.94;4997874;28;20040;-81
2021/12/31 07:53:54;;;;;;;10.20;2.13;;;;;;;9.89;57.14;101171.53;4992067;28;20069;-81
2021/12/31 07:56:20;;;;;;;3.80;1.95;;;;;;;9.78;57.14;101175.28;4994429;28;20490;-79
2021/12/31 07:58:46;;;;;;;2.30;1.65;;;;;;;10.11;56.27;101177.75;4993373;28;20145;-80
2021/12/31 08:01:12;;;;;;;3.30;1.40;;;;;;;9.54;57.89;101176.94;4993757;28;20069;-80
2021/12/31 08:03:37;;;;;;;3.67;1.63;;;;;;;9.90;57.07;101179.31;4986422;28;20042;-80
2021/12/31 08:06:02;;;;;;;4.88;1.10;;;;;;;9.13;58.85;101201.63;4979941;28;20081;-80
2021/12/31 08:08:28;;;;;;;5.00;1.20;;;;;;;9.40;58.19;101190.38;4990187;28;20510;-80
2021/12/31 08:10:54;;;;;;;6.60;1.70;;;;;;;9.22;59.28;101200.53;5007625;28;20109;-81
2021/12/31 08:13:19;;;;;;;1.30;1.20;;;;;;;9.75;57.55;101206.72;4994238;28;20050;-81
2021/12/31 08:15:45;;;;;;;3.03;1.80;;;;;;;9.61;57.65;101198.47;4977229;28;21591;-81
2021/12/31 08:18:10;;;;;;;2.75;1.05;;;;;;;9.77;57.17;101197.09;4993519;28;20046;-80
2021/12/31 08:20:37;;;;;;;6.82;1.27;;;;;;;9.50;57.89;101198.81;4983471;28;20035;-79
2021/12/31 08:23:07;;;;;;;6.47;1.65;;;;;;;9.38;57.89;101202.63;4968106;28;20329;-80
2021/12/31 08:25:33;;;;;;;2.42;1.17;;;;;;;9.92;56.60;101203.63;4963157;28;20455;-79
2021/12/31 08:27:58;;;;;;;2.83;1.40;;;;;;;9.65;57.16;101205.28;4984642;28;20078;-79
2021/12/31 08:30:24;;;;;;;4.50;0.75;;;;;;;9.36;58.27;101208.78;4967672;28;20100;-79
2021/12/31 08:32:50;;;;;;;1.80;0.80;;;;;;;9.39;58.13;101214.78;4984056;28;20477;-79
2021/12/31 08:35:16;;;;;;;3.58;1.08;;;;;;;9.75;57.01;101209.34;4987585;28;20274;-79
2021/12/31 08:37:41;;;;;;;2.97;0.77;;;;;;;9.80;56.66;101194.41;4968776;28;20109;-78
2021/12/31 08:40:07;;;;;;;3.92;0.98;;;;;;;9.82;56.44;101196.13;4987105;28;20038;-79
2021/12/31 08:42:34;;;;;;;4.25;0.90;;;;;;;9.80;56.60;101198.78;4984250;28;20049;-80
2021/12/31 08:44:59;;;;;;;4.72;0.80;;;;;;;9.67;56.74;101194.81;4984704;28;20034;-80
2021/12/31 08:47:25;;;;;;;4.22;0.90;;;;;;;9.53;57.09;101205.69;4986180;28;20118;-80
2021/12/31 08:49:51;;;;;;;3.50;1.33;;;;;;;10.42;55.08;101198.47;4966201;28;20057;-80
2021/12/31 08:52:17;;;;;;;2.85;1.20;;;;;;;10.51;54.35;101191.25;4985047;28;20117;-80
2021/12/31 08:54:42;;;;;;;5.57;1.10;;;;;;;9.91;55.76;101201.06;4983706;28;20613;-80
2021/12/31 08:57:08;;;;;;;2.75;1.05;;;;;;;10.26;54.85;101191.19;4981493;28;20050;-79
2021/12/31 08:59:34;;;;;;;3.88;0.70;;;;;;;10.30;54.85;101198.88;4986210;28;20098;-80
2021/12/31 09:02:00;;;;;;;6.05;1.15;;;;;;;9.99;55.65;101180.75;4998117;28;20061;-80
2021/12/31 09:04:25;;;;;;;3.28;0.63;;;;;;;9.79;56.21;101207.50;4984372;28;20060;-80
2021/12/31 09:06:51;;;;;;;1.73;0.82;;;;;;;9.44;57.30;101205.97;4994019;28;20050;-80
2021/12/31 09:09:17;;;;;;;2.17;1.27;;;;;;;10.45;54.67;101218.41;4991930;28;20034;-80
2021/12/31 09:11:43;;;;;;;3.35;0.73;;;;;;;9.58;57.15;101209.84;4991134;28;20283;-80
2021/12/31 09:14:10;;;;;;;3.17;0.98;;;;;;;10.01;55.88;101202.44;4992692;28;20038;-81
2021/12/31 09:16:36;;;;;;;2.72;0.88;;;;;;;9.81;56.14;101197.88;4988567;28;20502;-82
2021/12/31 09:19:02;;;;;;;3.53;0.80;;;;;;;9.69;56.50;101217.34;4974910;28;20056;-81
2021/12/31 09:21:27;;;;;;;1.95;0.50;;;;;;;9.47;56.97;101211.09;4988369;28;20050;-80
2021/12/31 09:23:53;;;;;;;2.30;1.17;;;;;;;9.52;57.55;101215.28;4962309;28;20057;-80
2021/12/31 09:26:18;;;;;;;5.32;0.68;;;;;;;9.78;56.51;101227.50;4985024;28;20137;-81
2021/12/31 09:28:44;;;;;;;9.02;1.30;;;;;;;9.60;56.89;101220.25;4986967;28;20047;-80
2021/12/31 09:31:11;;;;;;;7.40;1.02;;;;;;;9.68;56.36;101212.16;4991219;28;20054;-79
2021/12/31 09:33:36;;;;;;;4.68;0.65;;;;;;;9.96;55.96;101214.81;4988219;28;20626;-81
2021/12/31 09:36:02;;;;;;;4.95;1.30;;;;;;;9.54;56.68;101218.69;4973721;28;20046;-78
2021/12/31 09:38:28;;;;;;;4.00;1.13;;;;;;;9.96;55.60;101230.47;4986881;28;20046;-81
2021/12/31 09:40:54;;;;;;;4.05;1.05;;;;;;;9.76;56.37;101229.31;4990295;28;20037;-80
2021/12/31 09:43:20;;;;;;;2.40;0.68;;;;;;;9.60;56.78;101218.47;4989503;28;20069;-80
2021/12/31 09:45:48;;;;;;;4.63;0.88;;;;;;;9.63;56.58;101222.75;4987740;28;20361;-80
2021/12/31 09:48:16;;;;;;;3.33;0.52;;;;;;;9.61;56.55;101229.81;4992465;28;20089;-82
2021/12/31 09:50:45;;;;;;;3.63;1.35;;;;;;;9.04;57.82;101222.75;4992492;28;20045;-81
2021/12/31 09:53:12;;;;;;;2.65;0.80;;;;;;;9.52;56.90;101220.50;4999774;28;20098;-80
2021/12/31 09:55:44;;;;;;;4.20;1.10;;;;;;;9.67;56.30;101224.38;4998134;28;20038;-79
2021/12/31 09:58:12;;;;;;;1.40;0.70;;;;;;;9.80;56.29;101241.41;5010476;28;20054;-79
2021/12/31 10:01:00;;;;;;;2.83;1.00;;;;;;;9.71;56.69;101249.47;4993777;28;20042;-79
2021/12/31 10:03:31;;;;;;;5.55;1.05;;;;;;;9.30;57.83;101240.28;4992356;28;20050;-81
2021/12/31 10:05:58;;;;;;;4.28;1.50;;;;;;;9.25;58.18;101248.22;4991885;28;20046;-79
2021/12/31 10:08:39;;;;;;;6.88;2.15;;;;;;;9.34;57.96;101242.75;4979646;28;20058;-80
2021/12/31 10:11:13;;;;;;;2.78;1.65;;;;;;;9.48;57.47;101244.97;4973987;28;20631;-81
2021/12/31 10:13:44;;;;;;;3.30;1.50;;;;;;;9.08;58.44;101255.69;5001722;28;20060;-83
2021/12/31 10:16:30;;;;;;;3.80;2.38;;;;;;;9.18;58.44;101233.66;4972673;28;20593;-80
2021/12/31 10:19:12;;;;;;;5.68;1.63;;;;;;;9.09;58.14;101246.94;4974685;28;20042;-80
2021/12/31 10:21:56;;;;;;;6.65;1.80;;;;;;;9.07;58.08;101244.38;4989960;28;20046;-81
2021/12/31 10:24:21;;;;;;;4.85;1.27;;;;;;;9.55;57.17;101248.25;4974477;28;20046;-81
2021/12/31 10:26:48;;;;;;;5.47;1.30;;;;;;;9.25;57.86;101243.00;4987882;28;20041;-80
2021/12/31 10:29:13;;;;;;;4.20;1.02;;;;;;;9.22;58.20;101221.38;4984138;28;20658;-79
2021/12/31 10:31:43;;;;;;;5.22;1.35;;;;;;;9.33;58.06;101235.81;4986363;28;20113;-81
2021/12/31 10:34:36;;;;;;;2.78;1.42;;;;;;;9.75;56.76;101230.22;4987408;28;20049;-79
2021/12/31 10:37:12;;;;;;;5.63;1.42;;;;;;;9.48;57.46;101238.91;4968826;28;20058;-79
2021/12/31 10:39:39;;;;;;;3.80;1.63;;;;;;;9.45;57.43;101241.56;4991394;28;20034;-80
2021/12/31 10:42:08;;;;;;;3.20;1.60;;;;;;;9.11;58.55;101234.72;4986764;28;20104;-82
2021/12/31 10:44:44;;;;;;;8.25;2.35;;;;;;;9.11;58.26;101234.72;4982717;28;20117;-80
2021/12/31 10:47:13;;;;;;;9.02;1.83;;;;;;;9.61;57.53;101240.25;4996067;28;20050;-81
2021/12/31 10:50:04;;;;;;;6.85;1.38;;;;;;;9.55;58.15;101243.03;4993335;28;20066;-80
2021/12/31 10:52:39;;;;;;;5.68;2.42;;;;;;;8.58;61.47;101237.84;4986994;28;20050;-81
2021/12/31 10:55:26;;;;;;;3.22;1.45;;;;;;;8.78;61.09;101237.34;4974175;28;20129;-81
2021/12/31 10:58:00;;;;;;;3.28;1.48;;;;;;;8.67;61.81;101231.53;5012569;28;20042;-79
2021/12/31 11:00:31;;;;;;;5.07;1.75;;;;;;;8.85;61.61;101233.72;5004376;28;20066;-78
2021/12/31 11:02:57;;;;;;;4.78;1.88;;;;;;;9.05;60.95;101220.09;5001262;28;20049;-78
2021/12/31 11:05:23;;;;;;;6.72;2.40;;;;;;;9.07;60.96;101220.91;4991233;28;20038;-78
2021/12/31 11:07:50;;;;;;;2.85;1.92;;;;;;;9.06;61.13;101236.63;4983210;28;20126;-79
2021/12/31 11:10:18;;;;;;;3.33;1.63;;;;;;;8.45;63.12;101224.28;4988836;28;20042;-78
2021/12/31 11:12:47;;;;;;;3.65;1.75;;;;;;;9.28;60.89;101234.25;4983763;28;20038;-78
2021/12/31 11:15:14;;;;;;;4.13;2.13;;;;;;;8.52;62.86;101218.03;4986809;28;20160;-79
2021/12/31 11:17:40;;;;;;;4.28;2.45;;;;;;;9.02;61.33;101221.94;4978276;28;20049;-78
2021/12/31 11:20:08;;;;;;;5.22;1.92;;;;;;;9.19;61.23;101224.94;4988931;28;20046;-80
2021/12/31 11:22:34;;;;;;;8.88;1.85;;;;;;;8.90;61.90;101220.53;4983347;28;20070;-79
2021/12/31 11:25:19;;;;;;;8.02;1.83;;;;;;;9.09;61.70;101237.38;4964002;28;20034;-80
2021/12/31 11:27:47;;;;;;;4.72;1.95;;;;;;;8.71;62.47;101225.38;4960512;28;20041;-78
2021/12/31 11:30:33;;;;;;;6.30;1.90;;;;;;;9.36;60.58;101219.22;4976615;28;20041;-80
2021/12/31 11:33:09;;;;;;;4.18;2.00;;;;;;;8.74;61.92;101214.91;4972196;28;20503;-79
2021/12/31 11:35:36;;;;;;;3.58;1.92;;;;;;;8.63;62.90;101227.28;4970267;28;20058;-81
2021/12/31 11:38:22;;;;;;;7.05;2.45;;;;;;;8.57;62.89;101223.97;4978206;28;20485;-81